FALA

Lanseria Airport

Johannesburg, South Africa
METAR FALA 201400Z 35006KT 280V080 CAVOK 16/M01 Q1029 NOSIG
Observed Flight Rules
Jul-20 @ 14:00 UTC (30 minutes ago) Visual Flight Rules
Wind Visibility Clouds
350° at 6 knots 10,000+ meters
  • Clear skies
Temperatures Readings
Current 16°C / 61°F
Dewpoint -1°C / 30°F
Humidity 31%
Altimeter 30.38" Hg
Pressure 1029 hPa
Elevation 1377
METAR FALA 201400Z 35006KT 280V080 CAVOK 16/M01 Q1029 NOSIG
Observed Flight Rules
Jul-20 @ 14:00 UTC
(30 minutes ago)
VFR
Wind Visibility
350° at 6 knots 10,000+ meters
Clouds
  • Clear skies
Temperature Dewpoint
16°C / 61°F -1°C / 30°F
Humidity Altimeter Pressure
31% 30.38" Hg 1029 hPa